Time;durP1;ratioP1;P1;durP2;ratioP2;P2;SDS_P1;SDS_P2;PMS_P1;PMS_P2;Temp;Humidity;BMP_temperature;BMP_pressure;BME280_temperature;BME280_humidity;BME280_pressure;Samples;Min_cycle;Max_cycle;Signal;HPM_P1;HPM_P2
2021/06/15 00:00:51;;;;;;;2.67;0.63;;;16.30;74.90;;;;;;5046274;28;20040;-69
2021/06/15 00:03:17;;;;;;;6.72;1.42;;;16.20;76.10;;;;;;5046429;28;20071;-70
2021/06/15 00:05:42;;;;;;;;;;;16.10;77.00;;;;;;5046460;28;20029;-69
2021/06/15 00:08:08;;;;;;;4.70;0.73;;;16.00;76.80;;;;;;5045732;28;19912;-70
2021/06/15 00:10:34;;;;;;;;;;;15.90;77.90;;;;;;5046785;28;20054;-67
2021/06/15 00:13:00;;;;;;;4.50;1.05;;;15.80;77.70;;;;;;5045972;28;19909;-69
2021/06/15 00:15:26;;;;;;;3.38;0.77;;;15.70;78.00;;;;;;5046125;28;20527;-69
2021/06/15 00:17:52;;;;;;;5.30;0.98;;;15.60;78.50;;;;;;5046216;28;20078;-69
2021/06/15 00:20:18;;;;;;;3.35;1.00;;;15.50;78.80;;;;;;5045944;28;20028;-69
2021/06/15 00:22:44;;;;;;;4.43;0.88;;;15.50;79.00;;;;;;5046109;28;20225;-69
2021/06/15 00:25:11;;;;;;;;;;;15.40;79.30;;;;;;5046740;28;20193;-69
2021/06/15 00:27:37;;;;;;;4.95;1.17;;;15.30;79.80;;;;;;5046048;28;19966;-69
2021/06/15 00:30:03;;;;;;;;;;;15.20;80.00;;;;;;5046632;28;20033;-69
2021/06/15 00:32:28;;;;;;;2.03;1.00;;;15.10;80.10;;;;;;5044820;28;19913;-70
2021/06/15 00:34:54;;;;;;;;;;;15.00;80.70;;;;;;5046307;28;20033;-70
2021/06/15 00:37:20;;;;;;;6.05;0.90;;;15.00;80.20;;;;;;5045828;28;20309;-69
2021/06/15 00:39:47;;;;;;;;;;;14.90;80.30;;;;;;5046184;28;20191;-69
2021/06/15 00:42:13;;;;;;;7.43;1.23;;;14.90;81.00;;;;;;5046287;28;19951;-69
2021/06/15 00:44:38;;;;;;;5.82;1.30;;;14.80;81.30;;;;;;5045741;28;20131;-70
2021/06/15 00:47:04;;;;;;;;;;;14.70;81.30;;;;;;5046439;28;20406;-68
2021/06/15 00:49:35;;;;;;;4.80;1.10;;;14.70;81.20;;;;;;5045524;28;19913;-68
2021/06/15 00:52:01;;;;;;;6.57;0.77;;;14.60;81.50;;;;;;5046065;28;20405;-70
2021/06/15 00:54:27;;;;;;;2.45;0.75;;;14.60;81.60;;;;;;5045416;28;20491;-69
2021/06/15 00:56:53;;;;;;;2.47;0.77;;;14.50;81.80;;;;;;5044543;28;20090;-69
2021/06/15 00:59:19;;;;;;;;;;;14.50;81.60;;;;;;5046410;28;20289;-69
2021/06/15 01:01:45;;;;;;;3.33;0.73;;;14.40;81.60;;;;;;5046108;28;19999;-69
2021/06/15 01:04:12;;;;;;;3.67;0.82;;;14.40;81.50;;;;;;5045663;28;20074;-69
2021/06/15 01:07:01;;;;;;;6.60;1.05;;;14.40;81.50;;;;;;5045371;28;20031;-69
2021/06/15 01:09:47;;;;;;;3.13;1.00;;;14.30;82.00;;;;;;5045240;28;20029;-70
2021/06/15 01:12:21;;;;;;;3.72;0.70;;;14.20;82.00;;;;;;5045938;28;20082;-69
2021/06/15 01:15:18;;;;;;;3.92;1.08;;;14.20;82.00;;;;;;5045508;28;20048;-69
2021/06/15 01:17:58;;;;;;;2.60;1.10;;;14.10;82.30;;;;;;5041258;28;20121;-68
2021/06/15 01:20:45;;;;;;;6.85;1.13;;;14.10;82.90;;;;;;5045668;28;20041;-68
2021/06/15 01:23:46;;;;;;;3.30;1.02;;;14.00;82.00;;;;;;5048521;28;20037;-69
2021/06/15 01:26:18;;;;;;;7.57;1.23;;;14.00;82.20;;;;;;5040930;28;20049;-69
2021/06/15 01:28:48;;;;;;;4.13;0.90;;;14.00;82.50;;;;;;5049559;28;20029;-69
2021/06/15 01:31:29;;;;;;;3.28;1.65;;;13.90;81.20;;;;;;5049092;28;20044;-69
2021/06/15 01:34:13;;;;;;;3.05;0.80;;;13.90;81.20;;;;;;5049290;28;20021;-70
2021/06/15 01:37:04;;;;;;;3.53;0.95;;;13.90;81.40;;;;;;5047820;28;20114;-69
2021/06/15 01:39:38;;;;;;;4.35;0.90;;;13.90;81.60;;;;;;5048744;28;20052;-69
2021/06/15 01:42:04;;;;;;;3.33;0.80;;;13.90;81.50;;;;;;5049149;28;20021;-70
2021/06/15 01:44:32;;;;;;;;;;;13.80;81.30;;;;;;5049674;28;20039;-69
2021/06/15 01:47:11;;;;;;;4.43;1.00;;;13.90;81.40;;;;;;5048680;28;19995;-69
2021/06/15 01:49:43;;;;;;;2.45;0.90;;;13.90;81.30;;;;;;5048679;28;20036;-69
2021/06/15 01:52:10;;;;;;;2.80;0.90;;;13.80;81.40;;;;;;5049063;28;20079;-69
2021/06/15 01:54:37;;;;;;;2.75;0.77;;;13.90;81.90;;;;;;5048855;28;20025;-69
2021/06/15 01:57:04;;;;;;;6.03;1.05;;;13.80;80.80;;;;;;5048912;28;20029;-69
2021/06/15 01:59:30;;;;;;;5.90;0.73;;;13.80;80.50;;;;;;5048747;28;20025;-68
2021/06/15 02:01:59;;;;;;;1.88;0.95;;;13.80;80.40;;;;;;5048740;28;20040;-70
2021/06/15 02:04:28;;;;;;;2.35;0.70;;;13.80;80.50;;;;;;5048792;28;20078;-69
2021/06/15 02:06:55;;;;;;;1.90;0.73;;;13.80;80.60;;;;;;5048270;28;20637;-69
2021/06/15 02:09:22;;;;;;;2.92;0.70;;;13.80;80.40;;;;;;5048554;28;20056;-68
2021/06/15 02:11:49;;;;;;;4.32;0.80;;;13.80;80.20;;;;;;5048590;28;20033;-69
2021/06/15 02:14:20;;;;;;;3.25;0.93;;;13.80;80.00;;;;;;5048420;28;20401;-70
2021/06/15 02:16:52;;;;;;;3.28;1.05;;;13.80;79.60;;;;;;5047524;28;20037;-69
2021/06/15 02:19:20;;;;;;;1.77;0.63;;;13.80;79.60;;;;;;5048810;28;20036;-69
2021/06/15 02:21:55;;;;;;;2.47;0.80;;;13.70;79.50;;;;;;5048399;28;20517;-68
2021/06/15 02:24:27;;;;;;;5.18;0.90;;;13.80;79.10;;;;;;5048158;28;20071;-70
2021/06/15 02:26:53;;;;;;;5.65;1.27;;;13.80;78.50;;;;;;5048228;28;20037;-68
2021/06/15 02:29:18;;;;;;;;;;;13.90;78.00;;;;;;5048782;28;20048;-70
2021/06/15 02:32:00;;;;;;;5.50;0.65;;;13.90;78.00;;;;;;5048130;28;19991;-69
2021/06/15 02:34:28;;;;;;;3.47;0.70;;;14.00;77.50;;;;;;5047240;28;20075;-69
2021/06/15 02:36:54;;;;;;;4.72;0.70;;;14.00;77.30;;;;;;5047930;28;20037;-69
2021/06/15 02:39:24;;;;;;;3.88;1.35;;;14.00;77.60;;;;;;5047916;28;20045;-70
2021/06/15 02:41:51;;;;;;;2.78;0.85;;;14.00;76.70;;;;;;5048457;28;20083;-69
2021/06/15 02:44:21;;;;;;;5.50;0.90;;;14.00;76.60;;;;;;5047905;28;20074;-69
2021/06/15 02:46:54;;;;;;;1.75;0.60;;;14.00;77.20;;;;;;5047958;28;20027;-69
2021/06/15 02:49:25;;;;;;;5.95;2.38;;;14.00;76.50;;;;;;5047544;28;20115;-70
2021/06/15 02:52:04;;;;;;;4.07;1.20;;;14.00;76.90;;;;;;5047862;28;20057;-69
2021/06/15 02:54:35;;;;;;;2.17;0.68;;;14.00;76.70;;;;;;5047955;28;20028;-70
2021/06/15 02:57:03;;;;;;;8.98;1.50;;;14.00;76.50;;;;;;5048088;28;20052;-69
2021/06/15 02:59:29;;;;;;;4.47;0.90;;;14.10;77.00;;;;;;5047599;28;20025;-69
2021/06/15 03:01:55;;;;;;;;;;;14.10;76.80;;;;;;5048003;28;20028;-70
2021/06/15 03:04:21;;;;;;;2.97;0.80;;;14.10;76.40;;;;;;5048031;28;19909;-69
2021/06/15 03:06:47;;;;;;;5.43;0.98;;;14.10;76.50;;;;;;5047187;28;20444;-69
2021/06/15 03:09:14;;;;;;;3.40;0.90;;;14.20;76.60;;;;;;5047765;28;20025;-69
2021/06/15 03:11:48;;;;;;;5.15;0.98;;;14.20;76.10;;;;;;5046115;28;20302;-69
2021/06/15 03:14:18;;;;;;;4.78;1.98;;;14.30;76.00;;;;;;5047668;28;20053;-69
2021/06/15 03:16:45;;;;;;;4.78;1.08;;;14.30;75.90;;;;;;5047737;28;20040;-69
2021/06/15 03:19:21;;;;;;;3.10;0.70;;;14.40;75.70;;;;;;5047576;28;20440;-69
2021/06/15 03:21:53;;;;;;;3.33;0.82;;;14.40;75.00;;;;;;5046845;28;20078;-69
2021/06/15 03:24:22;;;;;;;6.25;0.80;;;14.50;74.70;;;;;;5047722;28;20120;-70
2021/06/15 03:27:07;;;;;;;4.88;1.40;;;14.60;74.00;;;;;;5047419;28;20028;-70
2021/06/15 03:29:36;;;;;;;8.40;0.90;;;14.70;74.20;;;;;;5046629;28;20028;-70
2021/06/15 03:32:11;;;;;;;2.55;0.90;;;14.70;74.00;;;;;;5047141;28;20029;-69
2021/06/15 03:34:58;;;;;;;3.75;1.13;;;14.80;73.80;;;;;;5046595;28;20025;-69
2021/06/15 03:37:29;;;;;;;5.53;1.48;;;14.80;73.60;;;;;;5046720;28;20020;-69
2021/06/15 03:39:58;;;;;;;5.80;0.70;;;14.90;73.50;;;;;;5047202;28;20413;-68
2021/06/15 03:42:27;;;;;;;5.72;1.23;;;14.90;73.80;;;;;;5047309;28;20057;-69
2021/06/15 03:45:04;;;;;;;3.47;0.77;;;15.00;73.30;;;;;;5046246;28;20031;-70
2021/06/15 03:47:30;;;;;;;;;;;15.10;73.10;;;;;;5047208;28;20029;-68
2021/06/15 03:49:57;;;;;;;3.65;0.80;;;15.20;72.30;;;;;;5046690;28;20285;-70
2021/06/15 03:52:27;;;;;;;3.17;0.80;;;15.30;72.00;;;;;;5046864;28;20044;-69
2021/06/15 03:54:55;;;;;;;5.57;0.80;;;15.50;71.10;;;;;;5046651;28;20017;-69
2021/06/15 03:57:23;;;;;;;4.32;1.23;;;15.80;70.50;;;;;;5046622;28;20037;-68
2021/06/15 03:59:49;;;;;;;2.95;0.80;;;16.10;70.00;;;;;;5047328;28;20382;-70
2021/06/15 04:02:15;;;;;;;;;;;16.40;69.60;;;;;;5046984;28;20033;-70
2021/06/15 04:04:42;;;;;;;8.32;0.90;;;16.60;69.00;;;;;;5046668;28;19948;-69
2021/06/15 04:07:14;;;;;;;2.83;0.82;;;16.90;68.70;;;;;;5046185;28;20017;-69
2021/06/15 04:09:40;;;;;;;2.72;1.45;;;17.20;67.90;;;;;;5046376;28;20021;-69
2021/06/15 04:12:06;;;;;;;4.78;0.73;;;17.50;67.80;;;;;;5046779;28;20056;-69
2021/06/15 04:14:34;;;;;;;4.07;0.77;;;17.70;66.00;;;;;;5046758;28;20719;-69
2021/06/15 04:17:01;;;;;;;2.17;0.55;;;17.80;65.70;;;;;;5044764;28;20028;-70
2021/06/15 04:19:30;;;;;;;4.53;1.15;;;18.00;64.90;;;;;;5044879;28;20850;-70
2021/06/15 04:21:59;;;;;;;4.45;0.98;;;18.10;64.50;;;;;;5045201;28;20467;-69
2021/06/15 04:24:27;;;;;;;2.38;0.80;;;18.30;64.50;;;;;;5046606;28;20020;-69
2021/06/15 04:26:58;;;;;;;9.07;1.13;;;18.40;64.00;;;;;;5044893;28;20464;-70
2021/06/15 04:29:24;;;;;;;3.13;0.90;;;18.60;64.10;;;;;;5046441;28;20091;-69
2021/06/15 04:31:54;;;;;;;3.47;0.95;;;18.80;62.30;;;;;;5046318;28;20052;-70
2021/06/15 04:34:24;;;;;;;5.07;0.65;;;18.90;60.50;;;;;;5046120;28;20092;-70
2021/06/15 04:36:54;;;;;;;8.40;1.42;;;19.00;61.20;;;;;;5046190;28;20106;-68
2021/06/15 04:39:22;;;;;;;1.77;0.60;;;19.20;61.10;;;;;;5046051;28;20029;-69
2021/06/15 04:42:05;;;;;;;3.08;0.75;;;19.40;60.60;;;;;;5046473;28;20035;-69
2021/06/15 04:44:35;;;;;;;4.03;0.60;;;19.50;59.60;;;;;;5046515;28;20409;-68
2021/06/15 04:47:18;;;;;;;2.60;0.82;;;19.70;56.10;;;;;;5046012;28;20033;-70
2021/06/15 04:50:02;;;;;;;7.88;0.70;;;19.70;57.00;;;;;;5046203;28;20065;-69
2021/06/15 04:52:29;;;;;;;4.65;0.98;;;19.80;57.30;;;;;;5045874;28;20116;-69
2021/06/15 04:54:56;;;;;;;4.03;0.73;;;19.90;55.50;;;;;;5045855;28;20033;-69
2021/06/15 04:57:26;;;;;;;2.63;0.60;;;19.90;55.90;;;;;;5049527;28;20036;-70
2021/06/15 04:59:54;;;;;;;6.53;0.75;;;20.00;55.00;;;;;;5050599;28;20029;-69
2021/06/15 05:02:22;;;;;;;2.67;0.63;;;20.00;52.80;;;;;;5050011;28;20044;-69
2021/06/15 05:04:50;;;;;;;4.47;0.70;;;20.10;53.50;;;;;;5048652;28;20025;-70
2021/06/15 05:07:18;;;;;;;5.35;1.05;;;20.20;54.00;;;;;;5049981;28;20017;-70
2021/06/15 05:09:44;;;;;;;1.23;0.63;;;20.30;53.60;;;;;;5050050;28;20029;-69
2021/06/15 05:12:12;;;;;;;3.17;0.60;;;20.40;53.50;;;;;;5049684;28;20098;-69
2021/06/15 05:14:41;;;;;;;3.80;0.80;;;20.50;53.20;;;;;;5049682;28;20107;-69
2021/06/15 05:17:08;;;;;;;1.60;0.60;;;20.60;53.40;;;;;;5050035;28;20129;-70
2021/06/15 05:19:34;;;;;;;2.53;0.73;;;20.70;52.80;;;;;;5049553;28;20238;-70
2021/06/15 05:22:08;;;;;;;1.60;0.60;;;20.90;49.90;;;;;;5049666;28;20112;-69
2021/06/15 05:24:59;;;;;;;1.23;0.50;;;21.00;51.10;;;;;;5049786;28;20028;-69
2021/06/15 05:27:28;;;;;;;4.03;0.65;;;21.10;48.60;;;;;;5049620;28;20029;-70
2021/06/15 05:29:55;;;;;;;2.05;0.80;;;21.20;48.20;;;;;;5049199;28;20033;-70
2021/06/15 05:32:21;;;;;;;2.72;0.77;;;21.40;48.80;;;;;;5049606;28;20044;-69
2021/06/15 05:34:47;;;;;;;2.13;0.77;;;21.40;49.10;;;;;;5049231;28;20039;-69
2021/06/15 05:37:13;;;;;;;2.60;0.98;;;21.60;49.00;;;;;;5048988;28;20389;-69
2021/06/15 05:39:39;;;;;;;2.20;0.77;;;21.90;48.50;;;;;;5049542;28;20084;-70
2021/06/15 05:42:07;;;;;;;2.53;0.80;;;22.10;46.70;;;;;;5049214;28;20489;-70
2021/06/15 05:44:36;;;;;;;2.83;0.80;;;22.40;46.50;;;;;;5049212;28;20017;-70
2021/06/15 05:47:03;;;;;;;2.38;0.70;;;23.10;44.40;;;;;;5048820;28;20041;-70
2021/06/15 05:49:29;;;;;;;6.40;0.95;;;23.90;42.80;;;;;;5048427;28;20537;-69
2021/06/15 05:52:02;;;;;;;3.35;1.20;;;24.60;42.20;;;;;;5048593;28;20033;-71
2021/06/15 05:54:28;;;;;;;4.18;0.80;;;25.20;40.50;;;;;;5049057;28;20132;-68
2021/06/15 05:56:54;;;;;;;2.20;0.90;;;26.30;39.30;;;;;;5049208;28;20417;-68
2021/06/15 05:59:20;;;;;;;5.85;1.40;;;27.90;36.70;;;;;;5048375;28;20021;-68
2021/06/15 06:01:46;;;;;;;5.93;1.13;;;29.40;33.80;;;;;;5048983;28;20061;-68
2021/06/15 06:04:13;;;;;;;2.38;0.90;;;30.80;31.60;;;;;;5048398;28;20557;-68
2021/06/15 06:09:24;;;;;;;7.13;3.25;;;32.30;28.80;;;;;;5048805;28;20032;-68
2021/06/15 06:11:49;;;;;;;6.93;1.52;;;33.10;28.30;;;;;;5048406;28;20033;-69
2021/06/15 06:14:16;;;;;;;4.55;1.38;;;33.70;27.40;;;;;;5048571;28;20092;-68
2021/06/15 06:16:42;;;;;;;5.18;1.20;;;33.90;26.90;;;;;;5048902;28;20444;-69
2021/06/15 06:19:10;;;;;;;2.92;1.02;;;34.40;26.30;;;;;;5048055;28;20025;-69
2021/06/15 06:21:36;;;;;;;4.68;1.23;;;34.70;25.90;;;;;;5048451;28;20475;-69
2021/06/15 06:24:04;;;;;;;3.72;1.00;;;34.70;25.90;;;;;;5048300;28;20033;-68
2021/06/15 06:26:30;;;;;;;3.22;1.23;;;35.10;26.00;;;;;;5048251;28;20114;-69
2021/06/15 06:28:56;;;;;;;2.38;0.82;;;35.60;25.00;;;;;;5048474;28;20037;-69
2021/06/15 06:31:22;;;;;;;2.22;1.10;;;35.20;24.70;;;;;;5048292;28;20040;-69
2021/06/15 06:33:48;;;;;;;1.95;0.90;;;35.40;24.80;;;;;;5046671;28;20034;-68
2021/06/15 06:36:14;;;;;;;3.80;1.33;;;35.60;24.60;;;;;;5048114;28;20150;-69
2021/06/15 06:38:40;;;;;;;7.53;1.17;;;35.90;24.10;;;;;;5047968;28;20014;-69
2021/06/15 06:41:06;;;;;;;5.70;1.45;;;35.80;23.20;;;;;;5048280;28;20037;-69
2021/06/15 06:43:31;;;;;;;7.82;1.35;;;35.70;23.80;;;;;;5047973;28;20021;-68
2021/06/15 06:45:57;;;;;;;4.10;1.67;;;36.00;24.40;;;;;;5047883;28;20033;-69
2021/06/15 06:48:23;;;;;;;3.58;1.02;;;36.10;23.90;;;;;;5047952;28;20021;-70
2021/06/15 06:50:50;;;;;;;4.35;1.38;;;35.90;24.20;;;;;;5046465;28;20086;-69
2021/06/15 06:53:15;;;;;;;1.90;1.02;;;35.90;24.40;;;;;;5047827;28;20087;-68
2021/06/15 06:55:41;;;;;;;2.60;0.90;;;35.90;24.00;;;;;;5047835;28;20033;-69
2021/06/15 06:58:07;;;;;;;6.10;1.42;;;35.70;24.60;;;;;;5048128;28;20064;-68
2021/06/15 07:00:34;;;;;;;6.95;1.15;;;35.40;24.30;;;;;;5047669;28;20029;-69
2021/06/15 07:02:59;;;;;;;14.75;0.90;;;35.70;24.80;;;;;;5047591;28;20420;-69
2021/06/15 07:05:25;;;;;;;10.20;1.50;;;35.90;24.60;;;;;;5047517;28;20019;-68
2021/06/15 07:07:52;;;;;;;2.17;1.00;;;35.90;23.80;;;;;;5047236;28;20502;-69
2021/06/15 07:10:21;;;;;;;2.13;0.93;;;35.90;23.90;;;;;;5047244;28;20111;-69
2021/06/15 07:12:48;;;;;;;4.00;1.30;;;35.70;24.40;;;;;;5047706;28;20108;-68
2021/06/15 07:15:14;;;;;;;5.45;0.90;;;35.70;24.10;;;;;;5047344;28;20449;-69
2021/06/15 07:17:40;;;;;;;4.32;1.27;;;35.40;23.90;;;;;;5046958;28;20025;-68
2021/06/15 07:20:07;;;;;;;5.05;1.33;;;35.20;24.50;;;;;;5046612;28;20119;-69
2021/06/15 07:22:34;;;;;;;4.60;1.08;;;35.40;24.40;;;;;;5047181;28;20370;-69
2021/06/15 07:24:59;;;;;;;1.98;1.10;;;35.40;24.60;;;;;;5047141;28;20039;-69
2021/06/15 07:27:25;;;;;;;3.00;1.00;;;35.60;24.10;;;;;;5047250;28;20033;-69
2021/06/15 07:29:51;;;;;;;53.85;2.08;;;35.80;24.30;;;;;;5047407;28;20043;-69
2021/06/15 07:32:17;;;;;;;3.35;1.42;;;35.80;24.00;;;;;;5046485;28;20036;-69
2021/06/15 07:34:42;;;;;;;2.95;0.90;;;35.70;24.00;;;;;;5046666;28;20120;-69
2021/06/15 07:37:08;;;;;;;3.35;1.00;;;35.20;24.70;;;;;;5046611;28;20040;-69
2021/06/15 07:39:34;;;;;;;5.32;1.10;;;35.10;25.20;;;;;;5046575;28;20090;-69
2021/06/15 07:42:00;;;;;;;6.15;1.10;;;35.20;24.80;;;;;;5047027;28;20045;-68
2021/06/15 07:44:26;;;;;;;1.38;0.80;;;35.10;24.10;;;;;;5046646;28;20029;-69
2021/06/15 07:46:54;;;;;;;2.42;0.70;;;34.90;24.40;;;;;;5045292;28;20025;-69
2021/06/15 07:49:21;;;;;;;1.85;0.73;;;34.90;24.30;;;;;;5046330;28;20283;-68
2021/06/15 07:51:47;;;;;;;2.20;0.77;;;34.30;24.30;;;;;;5046892;28;20059;-67
2021/06/15 07:54:12;;;;;;;7.50;0.85;;;34.10;25.30;;;;;;5046733;28;20486;-68
2021/06/15 07:56:38;;;;;;;3.03;1.08;;;34.30;25.30;;;;;;5046485;28;20083;-69
2021/06/15 07:59:04;;;;;;;4.03;1.20;;;34.30;24.90;;;;;;5046712;28;20032;-69
2021/06/15 08:01:29;;;;;;;3.83;0.95;;;33.70;25.00;;;;;;5046210;28;20103;-67
2021/06/15 08:03:55;;;;;;;2.97;0.80;;;33.10;25.80;;;;;;5046236;28;20035;-68
2021/06/15 08:06:22;;;;;;;4.68;1.33;;;33.00;26.60;;;;;;5046688;28;20029;-69
2021/06/15 08:08:48;;;;;;;4.10;1.00;;;32.40;27.30;;;;;;5046067;28;20033;-69
2021/06/15 08:11:14;;;;;;;2.92;0.82;;;32.30;27.10;;;;;;5046233;28;20041;-69
2021/06/15 08:13:40;;;;;;;1.33;0.63;;;32.50;27.40;;;;;;5046118;28;20021;-69
2021/06/15 08:16:06;;;;;;;1.27;0.60;;;33.10;26.30;;;;;;5046376;28;20045;-68
2021/06/15 08:18:31;;;;;;;2.15;0.80;;;33.30;25.60;;;;;;5044458;28;20436;-68
2021/06/15 08:20:58;;;;;;;2.05;1.10;;;32.90;25.90;;;;;;5045803;28;20094;-68
2021/06/15 08:23:25;;;;;;;5.40;0.80;;;32.70;25.40;;;;;;5046202;28;20524;-68
2021/06/15 08:25:51;;;;;;;3.63;0.90;;;32.50;26.50;;;;;;5045866;28;20060;-68
2021/06/15 08:28:17;;;;;;;2.30;0.90;;;32.70;26.80;;;;;;5046098;28;20556;-68
2021/06/15 08:30:43;;;;;;;1.42;0.77;;;33.10;27.00;;;;;;5046102;28;20047;-67
2021/06/15 08:33:09;;;;;;;2.58;0.80;;;33.20;25.90;;;;;;5045621;28;20067;-69
2021/06/15 08:35:35;;;;;;;7.47;1.25;;;33.00;26.20;;;;;;5045769;28;20084;-68
2021/06/15 08:38:01;;;;;;;4.68;0.73;;;32.70;26.50;;;;;;5046241;28;20490;-68
2021/06/15 08:40:27;;;;;;;3.20;0.82;;;32.50;26.80;;;;;;5045939;28;20036;-68
2021/06/15 08:42:53;;;;;;;2.28;0.80;;;32.50;27.40;;;;;;5046171;28;20021;-68
2021/06/15 08:45:19;;;;;;;1.63;0.70;;;32.40;26.50;;;;;;5045959;28;20025;-68
2021/06/15 08:47:49;;;;;;;8.48;0.90;;;32.40;26.80;;;;;;5045513;28;20078;-67
2021/06/15 08:50:23;;;;;;;5.65;0.85;;;32.40;26.90;;;;;;5045580;28;20037;-68
2021/06/15 08:52:50;;;;;;;6.10;1.45;;;32.20;26.60;;;;;;5045728;28;20078;-69
2021/06/15 08:55:17;;;;;;;4.07;0.90;;;31.90;27.10;;;;;;5045655;28;20025;-68
2021/06/15 08:57:48;;;;;;;10.07;1.10;;;31.60;26.90;;;;;;5045416;28;20017;-68
2021/06/15 09:00:14;;;;;;;4.55;1.15;;;31.60;27.80;;;;;;5045907;28;20033;-69
2021/06/15 09:02:45;;;;;;;4.50;0.80;;;31.80;28.00;;;;;;5045306;28;20032;-69
2021/06/15 09:05:17;;;;;;;2.55;0.68;;;32.30;27.00;;;;;;5045631;28;20056;-69
2021/06/15 09:08:05;;;;;;;3.00;0.90;;;32.50;26.70;;;;;;5044727;28;20090;-68
2021/06/15 09:10:40;;;;;;;2.30;0.93;;;32.60;26.30;;;;;;5045791;28;20036;-68
2021/06/15 09:13:07;;;;;;;;;;;32.30;27.30;;;;;;5044558;28;20036;-67
2021/06/15 09:15:33;;;;;;;9.85;1.25;;;32.60;26.80;;;;;;5044633;28;19916;-67
2021/06/15 09:17:59;;;;;;;5.55;0.80;;;32.70;26.60;;;;;;5044338;28;20044;-67
2021/06/15 09:20:31;;;;;;;4.75;0.80;;;32.80;26.70;;;;;;5044818;28;20525;-68
2021/06/15 09:23:05;;;;;;;3.42;1.02;;;32.80;26.90;;;;;;5043365;28;20041;-68
2021/06/15 09:25:32;;;;;;;7.37;0.93;;;32.50;27.20;;;;;;5039783;28;20592;-67
2021/06/15 09:28:00;;;;;;;14.48;1.63;;;32.60;28.00;;;;;;5044955;28;20029;-68
2021/06/15 09:30:28;;;;;;;2.42;0.75;;;32.90;27.10;;;;;;5044805;28;20114;-67
2021/06/15 09:32:54;;;;;;;5.28;0.98;;;33.00;27.90;;;;;;5044317;28;20041;-67
2021/06/15 09:35:24;;;;;;;6.28;1.40;;;33.30;27.90;;;;;;5044147;28;20085;-68
2021/06/15 09:37:54;;;;;;;6.40;1.30;;;33.70;27.30;;;;;;5044404;28;20087;-68
2021/06/15 09:40:24;;;;;;;3.53;1.10;;;34.30;26.50;;;;;;5044524;28;20029;-67
2021/06/15 09:43:00;;;;;;;4.32;0.70;;;34.20;27.30;;;;;;5047308;28;20639;-67
2021/06/15 09:45:29;;;;;;;4.40;1.70;;;34.20;27.00;;;;;;5048033;28;20315;-68
2021/06/15 09:48:18;;;;;;;3.97;0.90;;;34.30;26.80;;;;;;5046261;28;20417;-68
2021/06/15 09:50:44;;;;;;;2.10;1.05;;;34.30;27.10;;;;;;5047442;28;20037;-68
2021/06/15 09:53:29;;;;;;;5.15;0.88;;;34.40;26.80;;;;;;5046664;28;20089;-67
2021/06/15 09:56:06;;;;;;;1.85;0.90;;;34.30;27.20;;;;;;5046469;28;20699;-67
2021/06/15 09:58:46;;;;;;;2.05;0.73;;;34.60;27.30;;;;;;5047689;28;20039;-67
2021/06/15 10:01:36;;;;;;;3.80;0.98;;;34.70;26.70;;;;;;5047203;28;20525;-68
2021/06/15 10:04:08;;;;;;;2.58;1.25;;;34.20;26.80;;;;;;5047780;28;20041;-67
2021/06/15 10:06:43;;;;;;;3.08;1.00;;;33.50;27.30;;;;;;5046637;28;20094;-67
2021/06/15 10:09:08;;;;;;;2.03;0.93;;;33.10;27.40;;;;;;5047846;28;20044;-67
2021/06/15 10:11:34;;;;;;;4.88;0.75;;;32.40;28.40;;;;;;5045744;28;20049;-69
2021/06/15 10:14:04;;;;;;;6.85;1.00;;;32.00;27.90;;;;;;5047586;28;20513;-69
2021/06/15 10:16:31;;;;;;;2.67;0.88;;;31.50;28.50;;;;;;5047562;28;20049;-69
2021/06/15 10:19:01;;;;;;;2.00;1.00;;;31.00;29.60;;;;;;5047517;28;20037;-69
2021/06/15 10:21:27;;;;;;;3.50;0.80;;;30.80;29.70;;;;;;5045521;28;20126;-69
2021/06/15 10:23:53;;;;;;;1.77;0.75;;;30.70;29.80;;;;;;5047611;28;20052;-69
2021/06/15 10:26:19;;;;;;;2.10;0.88;;;30.60;30.00;;;;;;5047215;28;20090;-69
2021/06/15 10:28:45;;;;;;;5.43;0.90;;;30.40;30.10;;;;;;5045949;28;20033;-69
2021/06/15 10:31:10;;;;;;;3.30;0.77;;;30.20;29.90;;;;;;5047112;28;20041;-71
2021/06/15 10:33:44;;;;;;;5.00;0.90;;;30.00;31.40;;;;;;5047016;28;20112;-69
2021/06/15 10:36:11;;;;;;;1.80;0.70;;;29.90;30.40;;;;;;5047124;28;20060;-68
2021/06/15 10:38:41;;;;;;;2.72;0.75;;;29.80;31.00;;;;;;5047136;28;20032;-69
2021/06/15 10:41:08;;;;;;;2.38;0.98;;;29.70;31.30;;;;;;5046889;28;20048;-69
2021/06/15 10:43:37;;;;;;;1.55;0.90;;;29.60;31.40;;;;;;5044003;28;20032;-69
2021/06/15 10:46:11;;;;;;;2.25;0.82;;;29.50;31.90;;;;;;5045372;28;20041;-69
2021/06/15 10:48:45;;;;;;;4.38;1.02;;;29.50;32.30;;;;;;5045556;28;20493;-69
2021/06/15 10:51:28;;;;;;;5.72;0.90;;;29.40;31.90;;;;;;5045916;28;20033;-69
2021/06/15 10:54:02;;;;;;;1.95;0.88;;;29.30;31.30;;;;;;5045844;28;20072;-70
2021/06/15 10:56:31;;;;;;;2.83;1.15;;;29.20;32.10;;;;;;5047029;28;20144;-69
2021/06/15 10:59:03;;;;;;;3.85;0.75;;;29.10;32.60;;;;;;5046406;28;20037;-70
2021/06/15 11:01:34;;;;;;;1.75;0.82;;;29.00;32.50;;;;;;5047014;28;20044;-70
2021/06/15 11:04:27;;;;;;;9.48;1.38;;;28.90;31.90;;;;;;5047026;28;20036;-69
2021/06/15 11:06:52;;;;;;;5.57;0.82;;;28.70;31.00;;;;;;5038703;28;20037;-70
2021/06/15 11:09:24;;;;;;;8.77;1.30;;;28.10;32.30;;;;;;5047686;28;20052;-69
2021/06/15 11:12:18;;;;;;;1.95;0.88;;;27.90;32.40;;;;;;5047049;28;20527;-70
2021/06/15 11:15:06;;;;;;;3.15;1.10;;;27.90;34.80;;;;;;5044442;28;20037;-70
2021/06/15 11:17:47;;;;;;;3.90;1.23;;;27.90;34.60;;;;;;5047110;28;20025;-69
2021/06/15 11:20:13;;;;;;;2.25;0.68;;;28.10;34.30;;;;;;5047285;28;20025;-70
2021/06/15 11:22:39;;;;;;;1.67;0.70;;;28.20;34.80;;;;;;5047339;28;20052;-70
2021/06/15 11:25:05;;;;;;;3.00;0.95;;;28.30;34.00;;;;;;5046804;28;20108;-70
2021/06/15 11:27:33;;;;;;;1.70;0.90;;;28.30;33.00;;;;;;5047129;28;20059;-70
2021/06/15 11:30:11;;;;;;;3.95;1.02;;;28.20;32.40;;;;;;5046751;28;20066;-70
2021/06/15 11:32:37;;;;;;;2.70;0.70;;;28.10;33.20;;;;;;5045678;28;20039;-69
2021/06/15 11:35:03;;;;;;;15.32;1.50;;;27.90;34.20;;;;;;5046821;28;20033;-69
2021/06/15 11:37:33;;;;;;;4.35;1.08;;;28.00;32.40;;;;;;5045378;28;20039;-70
2021/06/15 11:40:20;;;;;;;1.65;0.70;;;27.80;33.50;;;;;;5046881;28;20031;-69
2021/06/15 11:43:07;;;;;;;2.25;0.73;;;27.70;33.60;;;;;;5045790;28;20131;-70
2021/06/15 11:45:36;;;;;;;3.65;0.70;;;27.70;34.50;;;;;;5046625;28;20103;-70
2021/06/15 11:48:35;;;;;;;2.53;0.70;;;27.80;34.20;;;;;;5046615;28;20017;-70
2021/06/15 11:51:06;;;;;;;4.53;0.77;;;27.80;33.40;;;;;;5046619;28;20152;-70
2021/06/15 11:53:36;;;;;;;3.45;1.02;;;27.60;33.40;;;;;;5046064;28;20033;-67
2021/06/15 11:56:05;;;;;;;3.35;0.80;;;27.60;34.60;;;;;;5045465;28;20665;-66
2021/06/15 11:58:32;;;;;;;2.80;0.90;;;27.50;34.30;;;;;;5046666;28;20100;-66
2021/06/15 12:01:05;;;;;;;2.22;0.95;;;27.30;33.90;;;;;;5045980;28;20120;-67
2021/06/15 12:03:40;;;;;;;1.55;0.60;;;27.30;34.10;;;;;;5045974;28;20092;-67
2021/06/15 12:06:08;;;;;;;3.03;0.90;;;27.20;35.20;;;;;;5045868;28;20429;-67
2021/06/15 12:08:39;;;;;;;4.38;0.60;;;27.40;35.90;;;;;;5046381;28;20032;-68
2021/06/15 12:11:08;;;;;;;1.83;0.73;;;27.70;36.80;;;;;;5046467;28;20043;-67
2021/06/15 12:13:35;;;;;;;5.05;0.77;;;28.00;34.60;;;;;;5045957;28;20025;-67
2021/06/15 12:16:05;;;;;;;1.33;0.70;;;28.20;35.50;;;;;;5045949;28;20128;-67
2021/06/15 12:18:34;;;;;;;2.00;0.80;;;28.40;35.00;;;;;;5046316;28;20025;-67
2021/06/15 12:21:05;;;;;;;1.77;0.70;;;28.50;34.70;;;;;;5045809;28;20032;-67
2021/06/15 12:23:31;;;;;;;2.45;0.95;;;28.60;34.30;;;;;;5043948;28;20031;-67
2021/06/15 12:26:14;;;;;;;1.98;0.75;;;28.60;33.80;;;;;;5046364;28;20029;-68
2021/06/15 12:28:43;;;;;;;2.22;0.65;;;28.70;33.80;;;;;;5046459;28;20634;-67
2021/06/15 12:31:16;;;;;;;1.77;0.90;;;28.60;33.80;;;;;;5045732;28;20115;-69
2021/06/15 12:33:44;;;;;;;1.60;0.70;;;28.70;34.00;;;;;;5044610;28;20033;-67
2021/06/15 12:36:13;;;;;;;1.58;0.77;;;28.70;34.20;;;;;;5046078;28;20053;-67
2021/06/15 12:38:40;;;;;;;4.13;0.88;;;28.70;34.20;;;;;;5046271;28;20378;-67
2021/06/15 12:41:08;;;;;;;2.25;0.75;;;28.70;33.60;;;;;;5046237;28;20114;-67
2021/06/15 12:43:35;;;;;;;4.63;0.77;;;28.70;34.20;;;;;;5045458;28;20905;-67
2021/06/15 12:46:27;;;;;;;1.67;0.82;;;28.70;34.30;;;;;;5045774;28;20029;-66
2021/06/15 12:49:00;;;;;;;2.65;0.90;;;28.80;34.30;;;;;;5043474;28;20545;-67
2021/06/15 12:51:30;;;;;;;2.08;0.70;;;28.80;33.90;;;;;;5045930;28;20492;-67
2021/06/15 12:54:02;;;;;;;6.47;1.08;;;28.70;34.50;;;;;;5045455;28;20186;-67
2021/06/15 12:56:30;;;;;;;4.82;0.88;;;28.70;34.60;;;;;;5044611;28;20362;-67
2021/06/15 12:58:57;;;;;;;1.63;0.60;;;28.70;35.00;;;;;;5045744;28;20136;-67
2021/06/15 13:01:34;;;;;;;4.40;0.95;;;28.70;34.10;;;;;;5045433;28;20037;-68
2021/06/15 13:04:22;;;;;;;3.00;1.35;;;28.40;33.00;;;;;;5045535;28;20024;-66
2021/06/15 13:06:50;;;;;;;6.78;0.82;;;28.30;35.10;;;;;;5045415;28;20540;-67